Time;durP1;ratioP1;P1;durP2;ratioP2;P2;SDS_P1;SDS_P2;PMS_P1;PMS_P2;Temp;Humidity;BMP_temperature;BMP_pressure;BME280_temperature;BME280_humidity;BME280_pressure;Samples;Min_cycle;Max_cycle;Signal;HPM_P1;HPM_P2
2021/07/31 00:00:15;;;;;;;7.87;2.30;;;;;17.00;100211.00;;;;10449555;28;20205;-79
2021/07/31 00:05:18;;;;;;;6.27;2.67;;;;;16.90;100216.00;;;;10461005;28;20212;-80
2021/07/31 00:10:20;;;;;;;6.57;2.70;;;;;16.90;100218.00;;;;10477161;28;20209;-80
2021/07/31 00:15:22;;;;;;;9.30;3.30;;;;;16.90;100211.00;;;;10456456;28;20185;-80
2021/07/31 00:20:23;;;;;;;8.13;2.77;;;;;16.90;100209.00;;;;10456056;28;20185;-80
2021/07/31 00:25:25;;;;;;;5.77;2.30;;;;;16.90;100210.00;;;;10472190;28;20226;-80
2021/07/31 00:30:28;;;;;;;6.90;2.70;;;;;16.90;100207.00;;;;10451954;28;20289;-81
2021/07/31 00:35:30;;;;;;;8.47;3.00;;;;;16.80;100210.00;;;;10434111;28;20221;-79
2021/07/31 00:40:33;;;;;;;7.73;3.00;;;;;16.80;100206.00;;;;10469209;28;20193;-81
2021/07/31 00:45:37;;;;;;;10.83;2.63;;;;;16.70;100204.00;;;;10450708;28;20289;-81
2021/07/31 00:50:39;;;;;;;11.37;2.63;;;;;16.70;100197.00;;;;10458087;28;20294;-80
2021/07/31 00:55:41;;;;;;;7.80;2.37;;;;;16.70;100203.00;;;;10461974;28;20272;-81
2021/07/31 01:00:43;;;;;;;9.70;2.67;;;;;16.70;100213.00;;;;10470024;28;20198;-80
2021/07/31 01:05:45;;;;;;;8.37;3.10;;;;;16.70;100204.00;;;;10448617;28;20190;-80
2021/07/31 01:10:48;;;;;;;7.30;2.97;;;;;16.70;100206.00;;;;10446686;28;20676;-80
2021/07/31 01:16:10;;;;;;;6.47;2.43;;;;;16.50;100210.00;;;;10479144;28;20649;-80
2021/07/31 01:21:34;;;;;;;6.07;2.63;;;;;16.50;100216.00;;;;10444733;28;20186;-80
2021/07/31 01:26:46;;;;;;;9.63;3.23;;;;;16.50;100216.00;;;;10458986;28;20256;-80
2021/07/31 01:31:48;;;;;;;7.17;2.77;;;;;16.40;100217.00;;;;10456353;28;20220;-80
2021/07/31 01:36:52;;;;;;;7.67;2.57;;;;;16.40;100214.00;;;;10455678;28;20202;-80
2021/07/31 01:41:55;;;;;;;10.80;2.93;;;;;16.40;100219.00;;;;10464692;28;20226;-80
2021/07/31 01:46:57;;;;;;;9.03;2.93;;;;;16.40;100226.00;;;;10461146;28;20292;-80
2021/07/31 01:52:01;;;;;;;6.00;2.70;;;;;16.40;100214.00;;;;10442881;28;20578;-80
2021/07/31 01:57:04;;;;;;;6.33;2.70;;;;;16.50;100234.00;;;;10439707;28;20190;-80
2021/07/31 02:02:24;;;;;;;12.20;3.50;;;;;16.40;100236.00;;;;10450519;28;20189;-80
2021/07/31 02:07:32;;;;;;;6.53;2.67;;;;;16.40;100235.00;;;;10456150;28;20560;-80
2021/07/31 02:12:34;;;;;;;7.97;2.70;;;;;16.40;100237.00;;;;10450013;28;20201;-80
2021/07/31 02:17:40;;;;;;;7.43;2.70;;;;;16.30;100228.00;;;;10421762;28;20259;-79
2021/07/31 02:22:43;;;;;;;8.30;3.17;;;;;16.30;100223.00;;;;10442849;28;20186;-80
2021/07/31 02:28:04;;;;;;;6.73;2.73;;;;;16.20;100215.00;;;;10471062;28;20215;-80
2021/07/31 02:33:07;;;;;;;8.33;2.60;;;;;16.20;100208.00;;;;10438073;28;20268;-80
2021/07/31 02:38:09;;;;;;;9.13;3.10;;;;;16.10;100202.00;;;;10434765;28;20774;-80
2021/07/31 02:43:11;;;;;;;6.87;2.73;;;;;15.90;100205.00;;;;10458716;28;20640;-81
2021/07/31 02:48:14;;;;;;;4.37;2.77;;;;;15.90;100213.00;;;;10447243;28;20462;-81
2021/07/31 02:53:17;;;;;;;8.70;2.80;;;;;15.80;100212.00;;;;10421775;28;20217;-80
2021/07/31 02:58:19;;;;;;;5.13;2.90;;;;;15.80;100213.00;;;;10450170;28;20648;-80
2021/07/31 03:03:22;;;;;;;8.73;2.83;;;;;15.80;100204.00;;;;10436259;28;20220;-80
2021/07/31 03:08:27;;;;;;;6.00;2.80;;;;;15.70;100200.00;;;;10428455;28;20281;-80
2021/07/31 03:13:31;;;;;;;8.63;3.43;;;;;15.80;100200.00;;;;10446436;28;20281;-80
2021/07/31 03:18:34;;;;;;;7.73;2.93;;;;;15.90;100210.00;;;;10443215;28;20204;-80
2021/07/31 03:23:39;;;;;;;6.17;3.13;;;;;15.90;100200.00;;;;10427538;28;20182;-81
2021/07/31 03:28:41;;;;;;;8.63;3.47;;;;;15.80;100205.00;;;;10454240;28;20594;-80
2021/07/31 03:33:43;;;;;;;7.47;3.47;;;;;15.80;100208.00;;;;10447227;28;20218;-79
2021/07/31 03:38:46;;;;;;;8.07;2.93;;;;;15.70;100206.00;;;;10413393;28;20198;-80
2021/07/31 03:43:48;;;;;;;8.23;3.93;;;;;15.70;100206.00;;;;10433354;28;20260;-80
2021/07/31 03:48:51;;;;;;;8.30;3.70;;;;;15.80;100211.00;;;;10432666;28;20194;-81
2021/07/31 03:53:53;;;;;;;10.77;3.40;;;;;15.80;100214.00;;;;10444449;28;20557;-80
2021/07/31 03:58:56;;;;;;;5.33;3.47;;;;;15.70;100229.00;;;;10438216;28;20196;-81
2021/07/31 04:03:58;;;;;;;5.73;3.60;;;;;15.80;100230.00;;;;10450039;28;20202;-81
2021/07/31 04:09:02;;;;;;;8.60;3.00;;;;;15.80;100242.00;;;;10438218;28;20226;-81
2021/07/31 04:14:13;;;;;;;6.83;3.50;;;;;15.90;100237.00;;;;10460491;28;20198;-81
2021/07/31 04:19:40;;;;;;;7.67;4.13;;;;;15.90;100231.00;;;;10451494;28;20186;-81
2021/07/31 04:24:43;;;;;;;8.17;3.87;;;;;15.80;100234.00;;;;10460685;28;20241;-81
2021/07/31 04:29:51;;;;;;;8.17;3.80;;;;;15.80;100244.00;;;;10447375;28;20198;-81
2021/07/31 04:34:53;;;;;;;11.07;4.00;;;;;15.80;100233.00;;;;10416915;28;20214;-81
2021/07/31 04:39:55;;;;;;;12.17;5.00;;;;;15.80;100242.00;;;;10465618;28;20277;-81
2021/07/31 04:44:57;;;;;;;7.70;3.73;;;;;15.80;100245.00;;;;10448263;28;20241;-81
2021/07/31 04:49:58;;;;;;;10.03;3.70;;;;;15.80;100249.00;;;;10460186;28;20247;-80
2021/07/31 04:55:02;;;;;;;8.73;4.10;;;;;15.90;100248.00;;;;10439372;28;20201;-81
2021/07/31 05:00:05;;;;;;;5.47;3.77;;;;;16.10;100253.00;;;;10444369;28;20280;-80
2021/07/31 05:05:07;;;;;;;9.30;3.70;;;;;16.30;100255.00;;;;10434061;28;20194;-80
2021/07/31 05:10:10;;;;;;;9.10;4.87;;;;;16.50;100272.00;;;;10452134;28;20206;-80
2021/07/31 05:15:11;;;;;;;7.43;4.00;;;;;16.50;100276.00;;;;10458437;28;20195;-80
2021/07/31 05:20:14;;;;;;;10.63;4.20;;;;;16.40;100278.00;;;;10452353;28;20506;-81
2021/07/31 05:25:16;;;;;;;9.93;3.90;;;;;17.00;100284.00;;;;10455690;28;20186;-80
2021/07/31 05:30:18;;;;;;;12.43;4.23;;;;;17.00;100284.00;;;;10459506;28;20210;-80
2021/07/31 05:35:20;;;;;;;11.23;4.23;;;;;16.90;100298.00;;;;10449079;28;20253;-80
2021/07/31 05:40:22;;;;;;;11.40;4.00;;;;;17.00;100302.00;;;;10454669;28;20197;-81
2021/07/31 05:45:26;;;;;;;10.10;4.17;;;;;17.20;100306.00;;;;10438102;28;20248;-81
2021/07/31 05:50:28;;;;;;;13.73;4.50;;;;;17.50;100307.00;;;;10446138;28;20206;-81
2021/07/31 05:55:30;;;;;;;10.77;4.17;;;;;17.80;100309.00;;;;10453841;28;20195;-80
2021/07/31 06:00:32;;;;;;;5.50;3.63;;;;;18.00;100315.00;;;;10465362;28;20187;-80
2021/07/31 06:05:34;;;;;;;8.32;3.70;;;;;17.80;100338.00;;;;10446483;28;20190;-79
2021/07/31 06:10:36;;;;;;;6.72;3.70;;;;;18.70;100333.00;;;;10432506;28;20252;-80
2021/07/31 06:15:41;;;;;;;7.95;3.58;;;;;19.20;100333.00;;;;10424583;28;20197;-81
2021/07/31 06:20:43;;;;;;;7.07;3.35;;;;;19.60;100337.00;;;;10449781;28;20186;-80
2021/07/31 06:25:45;;;;;;;5.93;3.05;;;;;20.10;100338.00;;;;10467153;28;20260;-80
2021/07/31 06:30:46;;;;;;;6.78;2.58;;;;;20.90;100341.00;;;;10455726;28;20198;-81
2021/07/31 06:35:48;;;;;;;9.20;2.95;;;;;21.10;100353.00;;;;10433500;28;20328;-81
2021/07/31 06:40:50;;;;;;;6.45;3.28;;;;;20.10;100357.00;;;;10434572;28;20531;-81
2021/07/31 06:45:53;;;;;;;6.40;3.30;;;;;20.20;100346.00;;;;10447010;28;20768;-81
2021/07/31 06:50:55;;;;;;;7.88;3.33;;;;;20.10;100335.00;;;;10457624;28;20494;-80
2021/07/31 06:56:01;;;;;;;6.55;3.15;;;;;20.70;100350.00;;;;10470504;28;20198;-81
2021/07/31 07:01:09;;;;;;;8.05;3.25;;;;;20.90;100344.00;;;;10437960;28;20308;-81
2021/07/31 07:06:11;;;;;;;5.53;2.75;;;;;21.60;100356.00;;;;10452569;28;20197;-81
2021/07/31 07:11:15;;;;;;;6.05;2.97;;;;;20.90;100369.00;;;;10440871;28;20209;-81
2021/07/31 07:16:16;;;;;;;5.53;2.83;;;;;20.40;100366.00;;;;10427589;28;20197;-81
2021/07/31 07:21:19;;;;;;;7.18;3.55;;;;;20.40;100370.00;;;;10446709;28;20199;-81
2021/07/31 07:26:21;;;;;;;5.43;2.53;;;;;20.70;100372.00;;;;10434853;28;20200;-81
2021/07/31 07:31:23;;;;;;;7.07;3.70;;;;;20.90;100373.00;;;;10433621;28;20214;-81
2021/07/31 07:36:25;;;;;;;7.38;2.90;;;;;20.60;100382.00;;;;10458515;28;20276;-80
2021/07/31 07:41:27;;;;;;;3.72;2.70;;;;;21.30;100380.00;;;;10457734;28;20194;-81
2021/07/31 07:46:29;;;;;;;4.82;2.72;;;;;22.60;100393.00;;;;10449010;28;20653;-81
2021/07/31 07:51:31;;;;;;;3.22;2.17;;;;;22.80;100389.00;;;;10444185;28;20613;-80
2021/07/31 07:56:33;;;;;;;3.13;2.40;;;;;23.40;100401.00;;;;10447579;28;20193;-81
2021/07/31 08:01:35;;;;;;;5.15;2.85;;;;;22.80;100399.00;;;;10481567;28;20189;-82
2021/07/31 08:06:38;;;;;;;6.60;2.20;;;;;22.90;100387.00;;;;10446047;28;20711;-81
2021/07/31 08:11:43;;;;;;;5.65;2.78;;;;;22.50;100398.00;;;;10429103;28;20210;-81
2021/07/31 08:16:45;;;;;;;3.58;2.72;;;;;21.50;100404.00;;;;10440224;28;20273;-81
2021/07/31 08:21:47;;;;;;;4.93;3.15;;;;;20.40;100407.00;;;;10458572;28;20190;-81
2021/07/31 08:26:49;;;;;;;5.28;3.15;;;;;19.50;100402.00;;;;10444680;28;20194;-81
2021/07/31 08:31:51;;;;;;;4.82;2.85;;;;;19.00;100418.00;;;;10440680;28;20201;-81
2021/07/31 08:36:53;;;;;;;7.00;3.08;;;;;19.20;100417.00;;;;10464644;28;20191;-80
2021/07/31 08:41:55;;;;;;;6.63;2.80;;;;;19.50;100415.00;;;;10426278;28;20202;-80
2021/07/31 08:46:58;;;;;;;7.28;3.00;;;;;19.20;100417.00;;;;10469150;28;20213;-81
2021/07/31 08:52:01;;;;;;;6.13;2.90;;;;;19.10;100421.00;;;;10459562;28;20301;-80
2021/07/31 08:57:08;;;;;;;3.55;2.85;;;;;19.50;100422.00;;;;10455939;28;20861;-81
2021/07/31 09:02:10;;;;;;;6.00;2.58;;;;;20.40;100422.00;;;;10457038;28;20293;-81
2021/07/31 09:07:13;;;;;;;5.70;3.35;;;;;21.20;100426.00;;;;10450895;28;20200;-81
2021/07/31 09:12:15;;;;;;;4.32;2.83;;;;;21.80;100420.00;;;;10457630;28;20209;-81
2021/07/31 09:17:25;;;;;;;4.28;2.47;;;;;22.10;100440.00;;;;10457459;28;20190;-82
2021/07/31 09:22:27;;;;;;;7.00;3.15;;;;;22.20;100435.00;;;;10462232;28;20692;-81
2021/07/31 09:27:29;;;;;;;6.18;2.83;;;;;23.20;100439.00;;;;10455749;28;20194;-81
2021/07/31 09:32:44;;;;;;;4.93;2.30;;;;;23.90;100444.00;;;;10453103;28;20222;-81
2021/07/31 09:37:48;;;;;;;4.60;2.20;;;;;23.40;100455.00;;;;10469249;28;20240;-81
2021/07/31 09:42:50;;;;;;;2.72;2.08;;;;;22.50;100453.00;;;;10455317;28;20195;-82
2021/07/31 09:48:03;;;;;;;5.28;3.13;;;;;22.50;100442.00;;;;10441894;28;20221;-81
2021/07/31 09:53:17;;;;;;;6.03;2.78;;;;;24.60;100436.00;;;;10442314;28;20201;-81
2021/07/31 09:58:20;;;;;;;4.55;2.55;;;;;24.80;100453.00;;;;10461999;28;20173;-82
2021/07/31 10:03:22;;;;;;;5.07;2.20;;;;;24.20;100440.00;;;;10474376;28;20178;-81
2021/07/31 10:08:25;;;;;;;3.05;2.30;;;;;23.70;100454.00;;;;10465956;28;20240;-81
2021/07/31 10:13:28;;;;;;;3.25;1.98;;;;;23.90;100448.00;;;;10453526;28;20707;-80
2021/07/31 10:18:30;;;;;;;5.30;2.35;;;;;24.00;100454.00;;;;10466063;28;20190;-79
2021/07/31 10:23:59;;;;;;;4.97;2.20;;;;;24.50;100455.00;;;;10455407;28;20194;-81
2021/07/31 10:29:26;;;;;;;5.10;2.10;;;;;25.10;100458.00;;;;10483824;28;20186;-81
2021/07/31 10:34:57;;;;;;;3.22;2.05;;;;;25.50;100457.00;;;;10417966;28;20224;-79
2021/07/31 10:40:09;;;;;;;2.05;1.80;;;;;25.20;100449.00;;;;10438748;28;20201;-81
2021/07/31 10:45:23;;;;;;;6.70;2.00;;;;;25.70;100448.00;;;;10447240;28;20217;-79
2021/07/31 10:50:25;;;;;;;3.92;1.75;;;;;25.20;100449.00;;;;10428287;28;20210;-79
2021/07/31 10:55:36;;;;;;;2.92;1.92;;;;;24.30;100454.00;;;;10454325;28;20204;-79
2021/07/31 11:00:40;;;;;;;2.65;1.92;;;;;23.90;100448.00;;;;10459484;28;20190;-82
2021/07/31 11:05:51;;;;;;;2.28;1.70;;;;;23.80;100442.00;;;;10447078;28;20618;-81
2021/07/31 11:10:55;;;;;;;2.70;1.52;;;;;23.30;100456.00;;;;10460170;28;20278;-81
2021/07/31 11:16:00;;;;;;;4.30;2.13;;;;;24.00;100461.00;;;;10427958;28;20653;-82
2021/07/31 11:21:26;;;;;;;2.67;1.55;;;;;25.00;100460.00;;;;10471628;28;20189;-82
2021/07/31 11:26:32;;;;;;;2.75;1.50;;;;;25.20;100463.00;;;;10428109;28;20201;-81
2021/07/31 11:31:36;;;;;;;1.95;1.60;;;;;25.80;100451.00;;;;10448666;28;20293;-81
2021/07/31 11:36:39;;;;;;;2.78;1.50;;;;;26.90;100449.00;;;;10445889;28;20252;-80
2021/07/31 11:41:43;;;;;;;2.70;1.52;;;;;27.20;100463.00;;;;10441049;28;20208;-79
2021/07/31 11:46:46;;;;;;;3.83;1.40;;;;;27.80;100454.00;;;;10445363;28;20213;-80
2021/07/31 11:51:48;;;;;;;2.25;1.48;;;;;28.30;100452.00;;;;10445068;28;20197;-79
2021/07/31 11:56:51;;;;;;;2.75;1.73;;;;;27.90;100459.00;;;;10430003;28;20182;-79
2021/07/31 12:01:55;;;;;;;1.35;1.25;;;;;26.80;100462.00;;;;10427634;28;20197;-79
2021/07/31 12:07:19;;;;;;;1.75;1.48;;;;;26.40;100455.00;;;;10468093;28;20194;-82
2021/07/31 12:12:26;;;;;;;1.77;1.55;;;;;26.90;100458.00;;;;10437973;28;20273;-80
2021/07/31 12:17:28;;;;;;;1.60;1.15;;;;;27.40;100467.00;;;;10467382;28;20213;-80
2021/07/31 12:22:34;;;;;;;2.33;1.40;;;;;27.20;100476.00;;;;10447343;28;20270;-80
2021/07/31 12:27:52;;;;;;;1.40;1.00;;;;;27.60;100463.00;;;;10439271;28;20197;-80
2021/07/31 12:32:55;;;;;;;2.30;1.17;;;;;27.10;100457.00;;;;10429097;28;20221;-80
2021/07/31 12:37:58;;;;;;;2.55;1.40;;;;;27.40;100467.00;;;;10443248;28;20198;-80
2021/07/31 12:43:00;;;;;;;1.92;1.70;;;;;26.90;100467.00;;;;10437527;28;20186;-80
2021/07/31 12:48:02;;;;;;;1.67;1.38;;;;;27.60;100454.00;;;;10426897;28;20231;-80
2021/07/31 12:53:05;;;;;;;2.65;1.40;;;;;28.00;100461.00;;;;10455538;28;20244;-80
2021/07/31 12:58:07;;;;;;;1.67;1.40;;;;;27.30;100460.00;;;;10466860;28;20190;-80
2021/07/31 13:03:09;;;;;;;3.92;1.40;;;;;26.70;100452.00;;;;10425978;28;20191;-80
2021/07/31 13:08:14;;;;;;;3.78;1.63;;;;;27.00;100459.00;;;;10433793;28;20692;-80
2021/07/31 13:13:16;;;;;;;1.60;1.40;;;;;27.00;100463.00;;;;10430427;28;20209;-80
2021/07/31 13:18:21;;;;;;;2.08;1.38;;;;;26.30;100470.00;;;;10445907;28;20194;-80
2021/07/31 13:23:24;;;;;;;2.53;1.33;;;;;26.90;100449.00;;;;10464056;28;20565;-83
2021/07/31 13:28:27;;;;;;;1.77;1.30;;;;;27.70;100462.00;;;;10445644;28;20190;-80
2021/07/31 13:33:29;;;;;;;3.05;1.50;;;;;28.50;100462.00;;;;10428200;28;20768;-80
2021/07/31 13:38:35;;;;;;;1.75;1.65;;;;;27.40;100472.00;;;;10450696;28;20672;-79
2021/07/31 13:43:37;;;;;;;1.63;1.52;;;;;26.00;100474.00;;;;10429241;28;20650;-81
2021/07/31 13:48:39;;;;;;;1.50;1.35;;;;;24.80;100479.00;;;;10466198;28;20194;-80
2021/07/31 13:53:41;;;;;;;2.17;1.45;;;;;24.50;100477.00;;;;10447330;28;20216;-80
2021/07/31 13:58:43;;;;;;;2.55;1.40;;;;;24.20;100479.00;;;;10462335;28;20202;-81
2021/07/31 14:03:45;;;;;;;2.25;1.65;;;;;23.60;100476.00;;;;10432617;28;20202;-80
2021/07/31 14:08:47;;;;;;;5.07;2.33;;;;;23.00;100478.00;;;;10429206;28;20640;-80
2021/07/31 14:13:49;;;;;;;2.45;2.08;;;;;23.00;100486.00;;;;10420880;28;20281;-83
2021/07/31 14:18:51;;;;;;;4.90;2.80;;;;;23.30;100485.00;;;;10440471;28;20217;-83
2021/07/31 14:23:52;;;;;;;4.30;1.77;;;;;23.20;100478.00;;;;10417571;28;20208;-83
2021/07/31 14:28:54;;;;;;;1.83;1.50;;;;;27.50;100463.00;;;;10454201;28;20217;-83
2021/07/31 14:33:56;;;;;;;2.25;1.70;;;;;30.00;100479.00;;;;10462624;28;20589;-83
2021/07/31 14:38:58;;;;;;;1.83;1.50;;;;;31.30;100467.00;;;;10464076;28;20270;-82
2021/07/31 14:44:01;;;;;;;2.22;1.73;;;;;32.40;100467.00;;;;10492872;28;20214;-82
2021/07/31 14:49:03;;;;;;;3.13;1.45;;;;;32.40;100448.00;;;;10437742;28;20197;-83
2021/07/31 14:54:05;;;;;;;1.85;1.30;;;;;34.80;100452.00;;;;10454739;28;20209;-83
2021/07/31 14:59:07;;;;;;;2.67;1.23;;;;;34.70;100456.00;;;;10447826;28;20286;-80
2021/07/31 15:04:09;;;;;;;2.40;1.23;;;;;33.80;100466.00;;;;10449951;28;20269;-80
2021/07/31 15:09:11;;;;;;;3.30;1.25;;;;;27.40;100475.00;;;;10434504;28;20224;-80
2021/07/31 15:14:13;;;;;;;1.90;1.52;;;;;24.20;100489.00;;;;10425413;28;20220;-80
2021/07/31 15:19:15;;;;;;;1.60;1.50;;;;;23.40;100486.00;;;;10473249;28;20201;-79
2021/07/31 15:24:17;;;;;;;3.40;1.50;;;;;23.20;100492.00;;;;10462868;28;20193;-80
2021/07/31 15:29:18;;;;;;;1.70;1.60;;;;;23.30;100498.00;;;;10470883;28;20200;-82
2021/07/31 15:34:20;;;;;;;2.10;1.45;;;;;23.20;100502.00;;;;10450095;28;20213;-83
2021/07/31 15:39:25;;;;;;;1.83;1.50;;;;;22.90;100503.00;;;;10448327;28;20193;-82
2021/07/31 15:44:34;;;;;;;1.20;1.10;;;;;22.20;100513.00;;;;10447581;28;20201;-82
2021/07/31 15:49:36;;;;;;;2.88;1.50;;;;;21.90;100506.00;;;;10445829;28;20193;-82
2021/07/31 15:54:40;;;;;;;2.45;1.80;;;;;22.40;100489.00;;;;10456630;28;20198;-83
2021/07/31 15:59:42;;;;;;;3.70;1.42;;;;;24.40;100486.00;;;;10434264;28;20229;-83
2021/07/31 16:04:44;;;;;;;1.98;1.77;;;;;24.00;100484.00;;;;10463958;28;20189;-82
2021/07/31 16:09:46;;;;;;;2.90;1.45;;;;;23.80;100485.00;;;;10441420;28;20189;-82
2021/07/31 16:14:48;;;;;;;2.35;1.50;;;;;23.80;100472.00;;;;10458619;28;20202;-83
2021/07/31 16:19:50;;;;;;;3.75;2.03;;;;;23.30;100470.00;;;;10447088;28;20179;-82
2021/07/31 16:24:52;;;;;;;1.73;1.52;;;;;22.80;100474.00;;;;10466723;28;20262;-82
2021/07/31 16:29:54;;;;;;;2.47;1.73;;;;;22.40;100466.00;;;;10452588;28;21539;-82
2021/07/31 16:34:56;;;;;;;1.80;1.70;;;;;22.60;100467.00;;;;10447547;28;20272;-82
2021/07/31 16:39:58;;;;;;;2.17;1.98;;;;;22.80;100475.00;;;;10435769;28;20197;-82
2021/07/31 16:45:00;;;;;;;2.28;1.80;;;;;22.70;100467.00;;;;10450380;28;20201;-82
2021/07/31 16:50:07;;;;;;;2.58;1.70;;;;;22.00;100480.00;;;;10444266;28;20198;-82
2021/07/31 16:55:10;;;;;;;1.73;1.55;;;;;21.50;100487.00;;;;10456523;28;20760;-82
2021/07/31 17:00:12;;;;;;;3.08;1.88;;;;;21.00;100487.00;;;;10464712;28;20252;-82
2021/07/31 17:05:14;;;;;;;6.05;2.60;;;;;20.50;100488.00;;;;10456225;28;20860;-82
2021/07/31 17:10:16;;;;;;;5.18;2.60;;;;;20.00;100489.00;;;;10446814;28;20208;-82
2021/07/31 17:15:18;;;;;;;4.25;3.17;;;;;19.40;100494.00;;;;10463596;28;20210;-81
2021/07/31 17:20:20;;;;;;;5.57;3.38;;;;;18.70;100504.00;;;;10458137;28;20268;-82
2021/07/31 17:25:22;;;;;;;4.15;3.70;;;;;18.20;100502.00;;;;10436773;28;20660;-82
2021/07/31 17:30:24;;;;;;;7.93;3.95;;;;;17.90;100504.00;;;;10457860;28;20256;-81
2021/07/31 17:35:26;;;;;;;7.53;3.95;;;;;17.70;100507.00;;;;10438911;28;20220;-81
2021/07/31 17:40:29;;;;;;;6.07;3.78;;;;;17.50;100515.00;;;;10432331;28;20190;-81
2021/07/31 17:45:33;;;;;;;4.38;3.00;;;;;17.40;100511.00;;;;10422555;28;20206;-81
2021/07/31 17:50:35;;;;;;;5.97;3.15;;;;;17.30;100515.00;;;;10444081;28;20190;-80
2021/07/31 17:55:37;;;;;;;5.17;3.30;;;;;17.30;100505.00;;;;10444878;28;20289;-81
2021/07/31 18:00:39;;;;;;;4.93;3.70;;;;;17.20;100506.00;;;;10437579;28;20198;-81
2021/07/31 18:05:41;;;;;;;6.07;5.13;;;;;17.10;100504.00;;;;10435726;28;20190;-81
2021/07/31 18:10:43;;;;;;;7.28;5.47;;;;;17.00;100503.00;;;;10448440;28;20218;-81
2021/07/31 18:15:45;;;;;;;5.30;4.80;;;;;16.90;100513.00;;;;10448008;28;20607;-82
2021/07/31 18:20:47;;;;;;;4.83;4.33;;;;;16.90;100519.00;;;;10435793;28;20198;-81
2021/07/31 18:25:49;;;;;;;9.20;5.28;;;;;16.90;100509.00;;;;10436933;28;20190;-81
2021/07/31 18:30:51;;;;;;;4.87;4.47;;;;;16.80;100504.00;;;;10431720;28;20197;-80
2021/07/31 18:35:53;;;;;;;5.27;4.77;;;;;16.70;100494.00;;;;10447345;28;20301;-80
2021/07/31 18:40:56;;;;;;;7.38;5.32;;;;;16.60;100492.00;;;;10465690;28;20202;-80
2021/07/31 18:45:58;;;;;;;5.67;4.73;;;;;16.50;100490.00;;;;10447733;28;20209;-80
2021/07/31 18:51:00;;;;;;;5.97;5.20;;;;;16.50;100496.00;;;;10434350;28;20197;-79
2021/07/31 18:56:08;;;;;;;7.47;5.60;;;;;16.50;100510.00;;;;10445211;28;20209;-79
2021/07/31 19:01:10;;;;;;;9.13;4.93;;;;;16.50;100515.00;;;;10443454;28;20205;-80
2021/07/31 19:06:12;;;;;;;8.73;5.00;;;;;16.40;100516.00;;;;10429700;28;20187;-80
2021/07/31 19:11:14;;;;;;;6.80;4.53;;;;;16.40;100522.00;;;;10429946;28;20189;-81
2021/07/31 19:16:16;;;;;;;8.40;4.87;;;;;16.30;100528.00;;;;10430841;28;20198;-81
2021/07/31 19:21:18;;;;;;;6.80;5.00;;;;;16.30;100532.00;;;;10464686;28;20213;-81
2021/07/31 19:26:20;;;;;;;5.47;4.97;;;;;16.30;100540.00;;;;10443531;28;20232;-81
2021/07/31 19:31:21;;;;;;;4.33;3.83;;;;;16.20;100542.00;;;;10430147;28;20189;-80
2021/07/31 19:36:24;;;;;;;7.43;4.37;;;;;16.10;100550.00;;;;10424984;28;20229;-81
2021/07/31 19:41:26;;;;;;;4.90;3.70;;;;;16.00;100544.00;;;;10430094;28;20259;-81
2021/07/31 19:46:28;;;;;;;4.73;4.27;;;;;15.90;100554.00;;;;10459124;28;20209;-81
2021/07/31 19:51:30;;;;;;;4.23;3.70;;;;;15.80;100555.00;;;;10456616;28;20204;-81
2021/07/31 19:56:32;;;;;;;4.50;3.13;;;;;15.70;100537.00;;;;10444583;28;20193;-81
2021/07/31 20:01:34;;;;;;;6.40;4.47;;;;;15.60;100546.00;;;;10458243;28;20216;-81
2021/07/31 20:06:36;;;;;;;5.33;4.20;;;;;15.60;100541.00;;;;10438720;28;20251;-81
2021/07/31 20:11:37;;;;;;;4.40;3.87;;;;;15.60;100550.00;;;;10412745;28;20301;-80
2021/07/31 20:16:40;;;;;;;5.53;4.50;;;;;15.60;100543.00;;;;10443020;28;20209;-82
2021/07/31 20:21:44;;;;;;;6.60;4.13;;;;;15.60;100543.00;;;;10433770;28;20280;-81
2021/07/31 20:26:48;;;;;;;7.57;4.97;;;;;15.60;100549.00;;;;10419468;28;20216;-81
2021/07/31 20:31:50;;;;;;;5.13;4.63;;;;;15.60;100542.00;;;;10460024;28;20212;-81
2021/07/31 20:36:52;;;;;;;6.63;5.33;;;;;15.60;100542.00;;;;10458262;28;20561;-81
2021/07/31 20:41:54;;;;;;;5.90;5.20;;;;;15.60;100543.00;;;;10440893;28;20190;-81
2021/07/31 20:46:56;;;;;;;7.20;5.20;;;;;15.50;100535.00;;;;10441655;28;20202;-81
2021/07/31 20:51:58;;;;;;;6.87;4.80;;;;;15.50;100531.00;;;;10430281;28;20238;-81
2021/07/31 20:57:01;;;;;;;7.23;4.93;;;;;15.40;100534.00;;;;10451660;28;20202;-82
2021/07/31 21:02:04;;;;;;;7.20;4.73;;;;;15.40;100536.00;;;;10454712;28;20224;-81
2021/07/31 21:07:07;;;;;;;6.57;4.70;;;;;15.30;100541.00;;;;10441932;28;20255;-82
2021/07/31 21:12:09;;;;;;;6.53;5.10;;;;;15.20;100539.00;;;;10469108;28;20221;-81
2021/07/31 21:17:10;;;;;;;5.80;5.20;;;;;15.10;100541.00;;;;10448788;28;20194;-81
2021/07/31 21:22:12;;;;;;;7.03;4.60;;;;;15.10;100540.00;;;;10443230;28;20174;-81
2021/07/31 21:27:14;;;;;;;6.60;4.93;;;;;15.00;100534.00;;;;10453513;28;20675;-82
2021/07/31 21:32:16;;;;;;;6.80;5.60;;;;;14.90;100548.00;;;;10456584;28;20213;-81
2021/07/31 21:37:18;;;;;;;7.50;6.70;;;;;14.90;100536.00;;;;10448261;28;20202;-81
2021/07/31 21:42:20;;;;;;;10.33;8.73;;;;;14.90;100532.00;;;;10437517;28;20228;-82
2021/07/31 21:47:22;;;;;;;13.93;9.83;;;;;14.90;100527.00;;;;10463297;28;20268;-82
2021/07/31 21:52:24;;;;;;;16.07;10.40;;;;;14.90;100532.00;;;;10414709;28;20210;-81
2021/07/31 21:57:27;;;;;;;18.67;10.93;;;;;14.80;100532.00;;;;10445601;28;20190;-81
2021/07/31 22:02:29;;;;;;;16.10;11.00;;;;;14.80;100529.00;;;;10451831;28;20694;-81
2021/07/31 22:07:31;;;;;;;13.60;9.50;;;;;14.70;100530.00;;;;10455253;28;20193;-82
2021/07/31 22:12:33;;;;;;;15.10;10.87;;;;;14.70;100521.00;;;;10439829;28;20208;-81
2021/07/31 22:17:35;;;;;;;15.63;9.53;;;;;14.60;100525.00;;;;10464099;28;20235;-81
2021/07/31 22:22:38;;;;;;;11.33;9.07;;;;;14.60;100520.00;;;;10448791;28;20203;-81
2021/07/31 22:27:40;;;;;;;13.73;10.20;;;;;14.60;100515.00;;;;10463105;28;20197;-81
2021/07/31 22:32:46;;;;;;;11.93;8.47;;;;;14.50;100517.00;;;;10442036;28;20225;-81
2021/07/31 22:37:48;;;;;;;14.43;9.77;;;;;14.50;100513.00;;;;10487412;28;20228;-80
2021/07/31 22:42:50;;;;;;;13.00;8.77;;;;;14.50;100522.00;;;;10456643;28;20217;-80
2021/07/31 22:47:52;;;;;;;16.53;8.63;;;;;14.50;100520.00;;;;10427388;28;20202;-80
2021/07/31 22:52:54;;;;;;;15.60;8.77;;;;;14.40;100515.00;;;;10432692;28;20210;-80
2021/07/31 22:57:56;;;;;;;15.77;8.87;;;;;14.40;100506.00;;;;10438124;28;20190;-80
2021/07/31 23:03:01;;;;;;;11.23;7.90;;;;;14.40;100512.00;;;;10457267;28;20236;-80
2021/07/31 23:08:04;;;;;;;13.77;9.83;;;;;14.40;100517.00;;;;10457112;28;20200;-80
2021/07/31 23:13:06;;;;;;;14.70;9.57;;;;;14.40;100522.00;;;;10473293;28;20205;-80
2021/07/31 23:18:08;;;;;;;12.93;9.20;;;;;14.40;100516.00;;;;10454080;28;20194;-80
2021/07/31 23:23:10;;;;;;;16.97;9.53;;;;;14.40;100517.00;;;;10443287;28;20197;-81
2021/07/31 23:28:11;;;;;;;17.47;9.73;;;;;14.30;100520.00;;;;10487961;28;20192;-81
2021/07/31 23:33:13;;;;;;;19.13;10.10;;;;;14.40;100519.00;;;;10434867;28;20218;-80
2021/07/31 23:38:15;;;;;;;19.13;9.50;;;;;14.40;100512.00;;;;10448069;28;20190;-80
2021/07/31 23:43:17;;;;;;;15.37;10.03;;;;;14.40;100515.00;;;;10399249;28;20195;-80
2021/07/31 23:48:19;;;;;;;16.87;10.53;;;;;14.40;100513.00;;;;10432102;28;20220;-80
2021/07/31 23:53:21;;;;;;;26.10;10.70;;;;;14.40;100515.00;;;;10449002;28;20217;-81
2021/07/31 23:58:23;;;;;;;15.80;8.97;;;;;14.40;100510.00;;;;10473351;28;20192;-81
